createdAt,value
2022-10-15T05:43:12.943Z,40.25
2022-10-15T05:45:39.687Z,39.75
2022-10-15T05:48:06.632Z,39.92
2022-10-15T05:50:33.557Z,38.72
2022-10-15T05:53:04.330Z,40.42
2022-10-15T05:56:00.578Z,35.88
2022-10-15T05:58:30.878Z,39.75
2022-10-15T06:01:01.626Z,41.50
2022-10-15T06:03:28.724Z,39.78
2022-10-15T06:05:55.497Z,39.25
2022-10-15T06:08:22.397Z,40.10
2022-10-15T06:10:51.694Z,40.60
2022-10-15T06:13:31.359Z,41.75
2022-10-15T06:16:00.842Z,33.78
2022-10-15T06:18:27.622Z,42.63
2022-10-15T06:20:54.410Z,39.72
2022-10-15T06:23:22.043Z,41.22
2022-10-15T06:25:49.470Z,40.28
2022-10-15T06:28:16.339Z,41.10
2022-10-15T06:30:43.782Z,40.83
2022-10-15T06:35:41.248Z,41.83
2022-10-15T06:38:08.030Z,40.33
2022-10-15T06:40:34.819Z,43.60
2022-10-15T06:43:06.018Z,42.30
2022-10-15T06:45:32.908Z,39.67
2022-10-15T06:47:59.678Z,39.63
2022-10-15T06:50:26.505Z,43.15
2022-10-15T06:52:53.303Z,41.88
2022-10-15T06:55:20.049Z,39.88
2022-10-15T06:57:48.286Z,40.33
2022-10-15T07:00:15.146Z,42.08
2022-10-15T07:02:41.897Z,40.65
2022-10-15T07:05:08.987Z,40.47
2022-10-15T07:07:35.701Z,40.33
2022-10-15T07:10:02.464Z,39.42
2022-10-15T07:12:29.221Z,37.53
2022-10-15T07:14:55.974Z,40.05
2022-10-15T07:17:22.842Z,40.13
2022-10-15T07:19:49.683Z,40.50
2022-10-15T07:22:16.701Z,39.85
2022-10-15T07:24:46.191Z,37.97
2022-10-15T07:27:20.640Z,39.47
2022-10-15T07:29:47.595Z,38.15
2022-10-15T07:32:14.706Z,40.42
2022-10-15T07:34:41.466Z,40.75
2022-10-15T07:37:08.238Z,39.25
2022-10-15T07:39:37.715Z,40.83
2022-10-15T07:42:07.668Z,40.65
2022-10-15T07:44:34.447Z,37.65
2022-10-15T07:47:01.158Z,37.95
2022-10-15T07:49:27.898Z,35.22
2022-10-15T07:51:54.727Z,39.60
2022-10-15T07:54:21.556Z,40.40
2022-10-15T07:56:48.295Z,40.08
2022-10-15T07:59:15.058Z,38.00
2022-10-15T08:01:41.981Z,37.85
2022-10-15T08:04:09.060Z,38.08
2022-10-15T08:06:35.832Z,37.30
2022-10-15T08:09:04.886Z,38.97
2022-10-15T08:11:31.592Z,39.08
2022-10-15T08:13:58.287Z,38.60
2022-10-15T08:16:25.021Z,38.38
2022-10-15T08:21:19.398Z,38.65
2022-10-15T08:23:46.319Z,39.60
2022-10-15T08:26:13.138Z,40.95
2022-10-15T08:28:39.964Z,41.17
2022-10-15T08:31:06.835Z,40.13
2022-10-15T08:33:37.060Z,39.85
2022-10-15T08:36:07.466Z,39.20
2022-10-15T08:38:34.496Z,39.17
2022-10-15T08:41:01.755Z,40.55
2022-10-15T08:43:40.257Z,40.35
2022-10-15T08:46:10.677Z,40.83
2022-10-15T08:48:41.097Z,37.78
2022-10-15T08:51:17.329Z,38.95
2022-10-15T08:53:49.695Z,38.03
2022-10-15T08:56:20.070Z,38.13
2022-10-15T08:58:55.365Z,35.45
2022-10-15T09:01:57.356Z,37.08
2022-10-15T09:04:36.480Z,36.70
2022-10-15T09:07:12.654Z,37.28
2022-10-15T09:09:51.976Z,37.60
2022-10-15T09:12:31.552Z,38.00
2022-10-15T09:14:58.672Z,38.40
2022-10-15T09:17:26.807Z,38.13
2022-10-15T09:19:55.328Z,37.92
2022-10-15T09:22:27.120Z,38.40
2022-10-15T09:24:54.147Z,36.78
2022-10-15T09:27:37.077Z,40.03
2022-10-15T09:30:11.232Z,38.25
2022-10-15T09:32:46.905Z,37.88
2022-10-15T09:35:30.285Z,36.97
2022-10-15T09:38:25.172Z,38.45
2022-10-15T09:41:04.868Z,37.13
2022-10-15T09:43:35.706Z,37.00
2022-10-15T09:46:03.587Z,37.55
2022-10-15T09:48:36.431Z,36.00
2022-10-15T09:51:16.036Z,38.45
2022-10-15T09:54:03.482Z,36.55
2022-10-15T09:56:43.277Z,36.88
2022-10-15T09:59:17.796Z,35.17
2022-10-15T10:01:59.354Z,34.47
2022-10-15T10:04:28.385Z,36.50
2022-10-15T10:07:00.454Z,35.83
2022-10-15T10:09:33.088Z,34.33
2022-10-15T10:12:02.270Z,33.72
2022-10-15T10:14:33.095Z,32.05
2022-10-15T10:17:20.908Z,33.60
2022-10-15T10:20:14.699Z,33.13
2022-10-15T10:22:54.915Z,32.47
2022-10-15T10:25:29.118Z,31.75
2022-10-15T10:27:57.444Z,32.10
2022-10-15T10:30:24.284Z,31.88
2022-10-15T10:32:57.035Z,30.70
2022-10-15T10:35:34.375Z,33.33
2022-10-15T10:38:59.244Z,34.42
2022-10-15T10:41:26.203Z,32.13
2022-10-15T10:43:54.771Z,31.20
2022-10-15T10:46:33.458Z,32.42
2022-10-15T10:51:54.122Z,32.67
2022-10-15T10:54:20.944Z,32.67
2022-10-15T10:56:51.275Z,32.90
2022-10-15T10:59:37.646Z,33.03
2022-10-15T11:02:16.386Z,34.20
2022-10-15T11:04:43.199Z,36.17
2022-10-15T11:07:31.112Z,34.72
2022-10-15T11:10:17.167Z,29.92
2022-10-15T11:12:53.297Z,29.48
2022-10-15T11:15:48.026Z,29.55
2022-10-15T11:18:43.109Z,29.73
2022-10-15T11:21:15.778Z,30.05
2022-10-15T11:24:04.008Z,29.92
2022-10-15T11:26:46.012Z,29.33
2022-10-15T11:29:25.103Z,28.58
2022-10-15T11:32:14.974Z,28.77
2022-10-15T11:35:20.108Z,27.75
2022-10-15T11:38:10.544Z,28.55
2022-10-15T11:41:19.065Z,29.00
2022-10-15T11:43:45.856Z,28.55
2022-10-15T11:46:28.154Z,28.77
2022-10-15T11:49:04.853Z,30.95
2022-10-15T11:51:49.061Z,31.80
2022-10-15T11:54:26.254Z,31.42
2022-10-15T11:56:53.832Z,32.05
2022-10-15T11:59:33.681Z,32.70
2022-10-15T12:02:18.250Z,31.35
2022-10-15T12:04:52.455Z,29.48
2022-10-15T12:07:48.883Z,31.42
2022-10-15T12:10:46.786Z,30.88
2022-10-15T12:13:26.698Z,32.80
2022-10-15T12:16:12.071Z,32.38
2022-10-15T12:19:09.223Z,30.73
2022-10-15T12:21:54.775Z,28.85
2022-10-15T12:24:52.686Z,29.90
2022-10-15T12:27:27.121Z,26.52
2022-10-15T12:30:02.910Z,28.73
2022-10-15T12:32:30.301Z,28.73
2022-10-15T12:37:43.129Z,30.15
2022-10-15T12:44:04.323Z,32.90
2022-10-15T12:50:08.919Z,31.95
2022-10-15T12:53:13.711Z,31.80
2022-10-15T12:55:40.464Z,32.90
2022-10-15T12:58:28.843Z,31.67
2022-10-15T13:00:58.007Z,34.20
2022-10-15T13:03:34.757Z,33.30
2022-10-15T13:06:20.468Z,32.53
2022-10-15T13:08:52.279Z,33.47
2022-10-15T13:11:24.228Z,32.58
2022-10-15T13:14:14.607Z,33.47
2022-10-15T13:16:47.979Z,33.65
2022-10-15T13:19:41.860Z,32.95
2022-10-15T13:22:23.579Z,35.00
2022-10-15T13:24:50.606Z,36.83
2022-10-15T13:27:26.635Z,36.10
2022-10-15T13:29:57.005Z,36.67
2022-10-15T13:32:24.247Z,37.22
2022-10-15T13:34:51.465Z,37.75
2022-10-15T13:37:21.288Z,38.60
2022-10-15T13:39:50.134Z,37.28
2022-10-15T13:42:19.322Z,38.20
2022-10-15T13:45:04.817Z,37.90
2022-10-15T13:47:36.048Z,37.83
2022-10-15T13:50:21.208Z,38.72
2022-10-15T13:52:59.736Z,38.92
2022-10-15T13:55:36.310Z,37.20
2022-10-15T13:58:18.444Z,40.78
2022-10-15T14:01:19.234Z,40.72
2022-10-15T14:03:50.131Z,40.40
2022-10-15T14:06:24.410Z,34.85
2022-10-15T14:08:53.625Z,37.90
2022-10-15T14:11:20.662Z,40.92
2022-10-15T14:13:48.810Z,41.63
2022-10-15T14:16:38.225Z,41.03
2022-10-15T14:19:08.584Z,41.60
2022-10-15T14:21:35.700Z,40.40
2022-10-15T14:24:20.594Z,39.45
2022-10-15T14:26:47.721Z,41.28
2022-10-15T14:29:35.762Z,41.28
2022-10-15T14:32:02.623Z,39.45
2022-10-15T14:34:47.122Z,38.80
2022-10-15T14:37:35.144Z,41.38
2022-10-15T14:40:12.707Z,39.78
2022-10-15T14:43:00.868Z,39.88
2022-10-15T14:45:32.063Z,40.58
2022-10-15T14:48:03.343Z,40.88
2022-10-15T14:50:36.158Z,40.90
2022-10-15T14:53:08.312Z,41.00
2022-10-15T14:55:42.311Z,41.27
2022-10-15T14:58:10.721Z,39.80
2022-10-15T15:00:54.908Z,41.10
2022-10-15T15:03:26.413Z,39.20
2022-10-15T15:05:58.513Z,39.88
2022-10-15T15:08:29.138Z,35.97
2022-10-15T15:10:57.587Z,37.90
2022-10-15T15:13:25.905Z,40.08
2022-10-15T15:15:53.473Z,43.78
2022-10-15T15:18:20.755Z,42.30
2022-10-15T15:20:48.488Z,40.80
2022-10-15T15:23:20.288Z,39.25
2022-10-15T15:25:48.210Z,41.85
2022-10-15T15:28:19.663Z,40.75
2022-10-15T15:30:47.038Z,42.33
2022-10-15T15:33:15.004Z,41.33
2022-10-15T15:35:53.425Z,42.08
2022-10-15T15:38:22.319Z,42.15
2022-10-15T15:40:49.538Z,42.83
2022-10-15T15:43:17.811Z,41.65
2022-10-15T15:45:45.173Z,41.45
2022-10-15T15:48:13.149Z,41.22
2022-10-15T15:50:47.115Z,41.80
2022-10-15T15:53:13.973Z,41.13
2022-10-15T15:55:41.873Z,40.10
2022-10-15T15:58:09.105Z,41.58
2022-10-15T16:00:35.973Z,39.30
2022-10-15T16:03:09.162Z,42.60
2022-10-15T16:05:36.744Z,41.80
2022-10-15T16:08:03.934Z,41.92
2022-10-15T16:10:30.764Z,40.92
2022-10-15T16:25:05.766Z,44.88
2022-10-15T16:28:25.800Z,52.72
2022-10-15T16:46:30.333Z,46.50
2022-10-15T16:49:11.545Z,45.38
2022-10-15T16:54:54.175Z,43.35
2022-10-15T17:48:06.412Z,46.08
2022-10-15T17:50:51.356Z,47.05
2022-10-15T17:53:36.512Z,47.28
2022-10-15T17:56:24.206Z,47.13
2022-10-15T17:59:02.840Z,48.10
2022-10-15T18:01:58.922Z,45.83
2022-10-15T18:04:51.030Z,44.35
2022-10-15T18:07:53.699Z,44.80
2022-10-15T18:10:29.728Z,44.88
2022-10-15T18:13:05.723Z,46.83
2022-10-15T18:16:06.879Z,45.13
2022-10-15T18:18:48.797Z,45.00
2022-10-15T18:21:26.061Z,45.58
2022-10-15T18:24:04.156Z,46.50
2022-10-15T18:26:54.668Z,49.38
2022-10-15T18:29:33.251Z,46.95
2022-10-15T18:32:10.000Z,46.78
2022-10-15T18:35:06.907Z,43.95
2022-10-15T18:37:49.359Z,47.22
2022-10-15T18:40:25.541Z,46.97
2022-10-15T18:43:04.606Z,47.95
2022-10-15T18:45:44.955Z,47.63
2022-10-15T18:48:23.340Z,49.75
2022-10-15T18:51:03.159Z,49.72
2022-10-15T18:53:41.292Z,46.40
2022-10-15T18:56:26.035Z,45.63
2022-10-15T18:59:06.774Z,52.55
2022-10-15T19:01:44.192Z,49.40
2022-10-15T19:04:24.293Z,50.53
2022-10-15T19:07:07.458Z,47.38
2022-10-15T19:09:48.736Z,48.72
2022-10-15T19:12:31.605Z,48.30
2022-10-15T19:15:13.047Z,49.30
2022-10-15T19:17:55.552Z,49.20
2022-10-15T19:20:34.938Z,48.57
2022-10-15T19:23:15.466Z,48.17
2022-10-15T19:25:54.894Z,46.30
2022-10-15T19:28:34.898Z,50.00
2022-10-15T19:31:18.336Z,49.50
2022-10-15T19:36:38.036Z,49.22
2022-10-15T19:39:24.110Z,48.45
2022-10-15T19:42:10.349Z,49.47
2022-10-15T19:44:56.678Z,50.17
2022-10-15T19:47:31.379Z,47.22
2022-10-15T19:50:12.257Z,46.95
2022-10-15T19:52:56.713Z,47.58
2022-10-15T19:55:36.222Z,48.72
2022-10-15T19:58:18.656Z,48.92
2022-10-15T20:01:01.749Z,49.00
2022-10-15T20:03:37.923Z,48.60
2022-10-15T20:06:19.721Z,46.90
2022-10-15T20:09:00.513Z,47.20
2022-10-15T20:11:33.869Z,46.95
2022-10-15T20:14:04.660Z,41.20
2022-10-15T20:16:49.209Z,45.25
2022-10-15T20:19:28.714Z,44.70
2022-10-15T20:22:09.474Z,47.53
2022-10-15T20:25:07.036Z,48.22
2022-10-15T20:27:48.827Z,46.15
2022-10-15T20:30:35.031Z,46.83
2022-10-15T20:33:29.558Z,44.58
2022-10-15T20:36:23.995Z,50.83
2022-10-15T20:39:05.177Z,50.58
2022-10-15T20:41:44.937Z,48.90
2022-10-15T20:44:23.847Z,49.00
2022-10-15T20:47:07.496Z,47.53
2022-10-15T20:49:50.956Z,48.78
2022-10-15T20:52:52.789Z,47.10
2022-10-15T20:55:57.921Z,47.38
2022-10-15T20:59:09.333Z,47.97
2022-10-15T21:06:05.813Z,46.28
2022-10-15T21:12:32.145Z,42.75
2022-10-15T21:15:21.107Z,45.40
2022-10-15T21:17:57.838Z,47.03
2022-10-15T21:21:09.134Z,47.03
2022-10-15T21:24:00.903Z,48.08
2022-10-15T21:26:39.988Z,48.13
2022-10-15T21:29:23.334Z,45.45
2022-10-15T21:37:36.198Z,49.97
2022-10-15T21:40:18.922Z,48.78
2022-10-15T21:43:00.705Z,49.10
2022-10-15T21:45:39.817Z,50.97
2022-10-15T21:48:18.592Z,49.47
2022-10-15T21:51:04.335Z,48.20
2022-10-15T21:53:44.753Z,48.97
2022-10-15T21:56:27.931Z,50.40
2022-10-15T21:59:07.771Z,49.65
2022-10-15T22:02:03.189Z,49.65
2022-10-15T22:04:45.841Z,49.30
2022-10-15T22:07:31.783Z,45.70
2022-10-15T22:10:17.019Z,41.83
2022-10-15T22:13:02.921Z,51.95
2022-10-15T22:15:44.767Z,50.80
2022-10-15T22:18:31.006Z,49.45
2022-10-15T22:21:20.951Z,50.38
2022-10-15T22:24:13.951Z,49.08
2022-10-15T22:27:01.729Z,48.22
2022-10-15T22:29:51.442Z,49.33
2022-10-15T22:32:27.140Z,49.92
2022-10-15T22:35:13.092Z,50.03
2022-10-15T22:37:57.767Z,47.30
2022-10-15T22:40:37.127Z,49.22
2022-10-15T22:43:18.009Z,39.70
2022-10-15T22:46:00.827Z,45.78
2022-10-15T22:48:42.897Z,46.80
2022-10-15T22:51:24.905Z,46.65
2022-10-15T22:54:07.541Z,46.63
2022-10-15T22:57:07.869Z,40.50
2022-10-15T22:59:59.497Z,46.65
2022-10-15T23:02:40.660Z,46.75
2022-10-15T23:05:19.915Z,48.15
2022-10-15T23:07:58.996Z,47.28
2022-10-15T23:10:42.765Z,47.33
2022-10-15T23:13:23.897Z,46.83
2022-10-15T23:16:13.783Z,48.05
2022-10-15T23:18:58.613Z,45.63
2022-10-15T23:21:49.599Z,46.40
2022-10-15T23:24:36.608Z,41.83
2022-10-15T23:27:15.896Z,47.50
2022-10-15T23:30:14.336Z,47.05
2022-10-15T23:33:02.695Z,46.83
2022-10-15T23:35:45.615Z,51.85
2022-10-15T23:38:24.853Z,49.10
2022-10-15T23:41:08.931Z,46.65
2022-10-15T23:43:48.673Z,45.47
2022-10-15T23:46:29.698Z,43.30
2022-10-15T23:49:14.843Z,47.67
2022-10-15T23:51:53.908Z,47.10
2022-10-15T23:54:32.943Z,42.22
2022-10-15T23:57:14.691Z,50.05
2022-10-15T23:59:53.727Z,47.33
